createdAt,value
2023-05-07T00:01:41.719Z,100544.80
2023-05-07T00:04:08.764Z,100547.96
2023-05-07T00:06:35.835Z,100549.64
2023-05-07T00:09:02.905Z,100547.27
2023-05-07T00:11:29.769Z,100546.13
2023-05-07T00:13:56.668Z,100544.31
2023-05-07T00:16:23.574Z,100549.95
2023-05-07T00:18:50.609Z,100551.66
2023-05-07T00:21:17.534Z,100560.18
2023-05-07T00:23:44.355Z,100559.17
2023-05-07T00:26:11.176Z,100557.70
2023-05-07T00:28:38.414Z,100555.22
2023-05-07T00:31:05.364Z,100555.27
2023-05-07T00:33:32.306Z,100560.93
2023-05-07T00:35:59.221Z,100555.73
2023-05-07T00:38:26.428Z,100554.87
2023-05-07T00:40:53.365Z,100547.88
2023-05-07T00:43:20.239Z,100545.82
2023-05-07T00:45:47.103Z,100546.15
2023-05-07T00:48:14.041Z,100546.04
2023-05-07T00:50:42.118Z,100549.64
2023-05-07T00:53:09.270Z,100548.74
2023-05-07T00:55:36.819Z,100552.50
2023-05-07T00:58:03.665Z,100551.58
2023-05-07T01:00:30.610Z,100552.06
2023-05-07T01:02:57.720Z,100555.20
2023-05-07T01:05:26.116Z,100551.26
2023-05-07T01:07:53.643Z,100552.37
2023-05-07T01:10:20.531Z,100556.86
2023-05-07T01:12:48.310Z,100561.66
2023-05-07T01:15:15.594Z,100558.78
2023-05-07T01:17:42.952Z,100557.73
2023-05-07T01:20:15.559Z,100554.30
2023-05-07T01:22:42.889Z,100558.29
2023-05-07T01:25:10.349Z,100551.45
2023-05-07T01:27:40.061Z,100548.19
2023-05-07T01:30:08.155Z,100544.38
2023-05-07T01:32:39.579Z,100540.17
2023-05-07T01:35:07.387Z,100538.58
2023-05-07T01:37:34.310Z,100536.58
2023-05-07T01:40:02.346Z,100536.90
2023-05-07T01:42:29.866Z,100527.94
2023-05-07T01:44:56.872Z,100529.23
2023-05-07T01:47:23.807Z,100529.52
2023-05-07T01:49:50.768Z,100530.12
2023-05-07T01:52:17.694Z,100529.99
2023-05-07T01:54:44.525Z,100525.45
2023-05-07T01:57:11.371Z,100530.13
2023-05-07T01:59:38.704Z,100528.38
2023-05-07T02:02:05.615Z,100533.98
2023-05-07T02:04:32.951Z,100525.06
2023-05-07T02:06:59.942Z,100534.42
2023-05-07T02:09:26.947Z,100529.23
2023-05-07T02:11:53.856Z,100532.70
2023-05-07T02:14:21.744Z,100535.37
2023-05-07T02:16:49.023Z,100534.46
2023-05-07T02:19:16.771Z,100536.16
2023-05-07T02:21:44.134Z,100537.12
2023-05-07T02:24:11.600Z,100547.17
2023-05-07T02:26:38.474Z,100548.63
2023-05-07T02:29:05.361Z,100546.02
2023-05-07T02:31:32.700Z,100543.01
2023-05-07T02:33:59.678Z,100546.65
2023-05-07T02:36:27.710Z,100541.99
2023-05-07T02:39:03.837Z,100543.86
2023-05-07T02:41:31.003Z,100550.10
2023-05-07T02:43:57.943Z,100550.91
2023-05-07T02:46:25.284Z,100549.95
2023-05-07T02:48:58.822Z,100561.80
2023-05-07T02:51:27.122Z,100560.08
2023-05-07T02:53:56.286Z,100565.17
2023-05-07T02:56:23.436Z,100566.08
2023-05-07T02:58:50.398Z,100568.69
2023-05-07T03:01:17.922Z,100576.33
2023-05-07T03:04:05.739Z,100568.13
2023-05-07T03:06:32.719Z,100573.02
2023-05-07T03:08:59.699Z,100566.65
2023-05-07T03:11:26.945Z,100575.98
2023-05-07T03:13:53.804Z,100570.84
2023-05-07T03:16:22.046Z,100574.10
2023-05-07T03:18:49.212Z,100575.02
2023-05-07T03:21:16.280Z,100575.48
2023-05-07T03:23:43.225Z,100577.56
2023-05-07T03:26:10.064Z,100578.25
2023-05-07T03:28:38.188Z,100576.64
2023-05-07T03:31:07.543Z,100578.51
2023-05-07T03:33:35.220Z,100587.23
2023-05-07T03:36:02.680Z,100582.89
2023-05-07T03:38:29.839Z,100579.88
2023-05-07T03:40:57.002Z,100582.66
2023-05-07T03:43:23.947Z,100587.33
2023-05-07T03:45:56.972Z,100584.06
2023-05-07T03:48:25.953Z,100588.62
2023-05-07T03:50:53.948Z,100586.66
2023-05-07T03:53:21.225Z,100587.34
2023-05-07T03:55:48.067Z,100590.52
2023-05-07T03:58:15.053Z,100588.89
2023-05-07T04:00:42.017Z,100596.44
2023-05-07T04:03:15.798Z,100597.77
2023-05-07T04:05:43.039Z,100588.52
2023-05-07T04:08:10.168Z,100589.36
2023-05-07T04:10:40.258Z,100595.02
2023-05-07T04:13:09.930Z,100593.06
2023-05-07T04:15:37.471Z,100596.04
2023-05-07T04:18:06.562Z,100594.00
2023-05-07T04:20:35.867Z,100596.75
2023-05-07T04:23:03.056Z,100590.84
2023-05-07T04:25:30.489Z,100598.64
2023-05-07T04:28:03.032Z,100595.73
2023-05-07T04:30:30.114Z,100600.73
2023-05-07T04:32:57.411Z,100595.85
2023-05-07T04:35:25.114Z,100598.95
2023-05-07T04:37:52.390Z,100597.89
2023-05-07T04:40:19.556Z,100595.74
2023-05-07T04:42:46.675Z,100601.99
2023-05-07T04:45:14.060Z,100595.60
2023-05-07T04:47:41.931Z,100597.47
2023-05-07T04:50:10.133Z,100597.80
2023-05-07T04:52:37.678Z,100594.23
2023-05-07T04:55:05.732Z,100592.91
2023-05-07T04:57:36.155Z,100588.41
2023-05-07T05:00:04.262Z,100580.48
2023-05-07T05:02:32.612Z,100579.98
2023-05-07T05:05:00.282Z,100578.69
2023-05-07T05:07:27.240Z,100582.86
2023-05-07T05:09:54.597Z,100578.95
2023-05-07T05:12:21.546Z,100593.30
2023-05-07T05:14:48.506Z,100587.27
2023-05-07T05:17:15.898Z,100586.08
2023-05-07T05:19:43.011Z,100586.87
2023-05-07T05:22:09.969Z,100588.24
2023-05-07T05:24:37.224Z,100580.08
2023-05-07T05:27:05.095Z,100580.11
2023-05-07T05:29:32.968Z,100583.66
2023-05-07T05:32:00.652Z,100588.27
2023-05-07T05:34:28.751Z,100590.38
2023-05-07T05:36:56.695Z,100592.37
2023-05-07T05:39:24.363Z,100597.15
2023-05-07T05:41:51.505Z,100596.61
2023-05-07T05:44:18.650Z,100596.67
2023-05-07T05:46:45.773Z,100599.77
2023-05-07T05:49:12.718Z,100596.86
2023-05-07T05:51:40.306Z,100601.25
2023-05-07T05:54:07.292Z,100603.92
2023-05-07T05:56:34.441Z,100605.94
2023-05-07T05:59:01.311Z,100608.05
2023-05-07T06:01:28.560Z,100607.15
2023-05-07T06:03:56.214Z,100605.30
2023-05-07T06:06:23.159Z,100602.05
2023-05-07T06:08:50.068Z,100612.04
2023-05-07T06:11:21.302Z,100614.45
2023-05-07T06:13:48.514Z,100603.70
2023-05-07T06:16:16.488Z,100605.62
2023-05-07T06:18:43.854Z,100597.94
2023-05-07T06:21:11.240Z,100594.30
2023-05-07T06:23:38.671Z,100587.89
2023-05-07T06:26:06.162Z,100589.20
2023-05-07T06:28:37.153Z,100590.64
2023-05-07T06:31:33.054Z,100581.70
2023-05-07T06:34:03.495Z,100585.13
2023-05-07T06:36:38.266Z,100585.64
2023-05-07T06:39:28.221Z,100589.76
2023-05-07T06:41:55.170Z,100598.04
2023-05-07T06:44:25.807Z,100595.67
2023-05-07T06:47:03.130Z,100592.71
2023-05-07T06:49:30.365Z,100592.31
2023-05-07T06:51:57.240Z,100592.36
2023-05-07T06:54:24.659Z,100600.59
2023-05-07T06:56:52.552Z,100599.51
2023-05-07T06:59:20.625Z,100612.04
2023-05-07T07:01:48.050Z,100612.17
2023-05-07T07:04:15.879Z,100609.10
2023-05-07T07:06:43.463Z,100605.35
2023-05-07T07:09:12.195Z,100612.17
2023-05-07T07:11:39.153Z,100609.24
2023-05-07T07:14:06.920Z,100613.46
2023-05-07T07:16:37.118Z,100604.69
2023-05-07T07:19:04.025Z,100609.02
2023-05-07T07:21:31.661Z,100613.55
2023-05-07T07:23:59.219Z,100596.48
2023-05-07T07:26:26.476Z,100596.34
2023-05-07T07:28:53.616Z,100589.05
2023-05-07T07:31:21.443Z,100588.14
2023-05-07T07:33:49.148Z,100587.69
2023-05-07T07:36:16.635Z,100582.20
2023-05-07T07:38:43.580Z,100583.86
2023-05-07T07:41:10.457Z,100584.19
2023-05-07T07:43:37.586Z,100577.42
2023-05-07T07:46:05.156Z,100574.02
2023-05-07T07:48:32.358Z,100572.19
2023-05-07T07:50:59.464Z,100570.65
2023-05-07T07:53:26.515Z,100570.88
2023-05-07T07:55:55.080Z,100572.56
2023-05-07T07:58:27.653Z,100570.27
2023-05-07T08:00:57.074Z,100568.77
2023-05-07T08:03:24.543Z,100566.29
2023-05-07T08:05:53.754Z,100568.89
2023-05-07T08:08:21.358Z,100568.95
2023-05-07T08:10:51.103Z,100561.98
2023-05-07T08:13:24.196Z,100562.55
2023-05-07T08:15:51.167Z,100568.06
2023-05-07T08:18:18.156Z,100575.25
2023-05-07T08:20:45.390Z,100571.14
2023-05-07T08:23:15.573Z,100574.89
2023-05-07T08:25:43.646Z,100573.25
2023-05-07T08:28:11.321Z,100578.77
2023-05-07T08:30:38.637Z,100570.60
2023-05-07T08:33:06.238Z,100571.58
2023-05-07T08:35:33.443Z,100554.91
2023-05-07T08:38:00.491Z,100557.44
2023-05-07T08:40:27.952Z,100550.29
2023-05-07T08:42:55.512Z,100554.58
2023-05-07T08:45:22.778Z,100546.48
2023-05-07T08:47:55.817Z,100546.13
2023-05-07T08:50:23.002Z,100544.16
2023-05-07T08:52:50.189Z,100541.89
2023-05-07T08:55:17.363Z,100539.27
2023-05-07T08:57:44.622Z,100535.73
2023-05-07T09:00:12.969Z,100533.89
2023-05-07T09:02:40.341Z,100530.09
2023-05-07T09:05:08.760Z,100526.45
2023-05-07T09:07:35.973Z,100530.64
2023-05-07T09:10:05.194Z,100538.13
2023-05-07T09:12:33.016Z,100531.56
2023-05-07T09:15:00.038Z,100532.45
2023-05-07T09:17:27.467Z,100528.00
2023-05-07T09:19:54.640Z,100526.73
2023-05-07T09:22:22.194Z,100524.36
2023-05-07T09:24:59.581Z,100528.48
2023-05-07T09:27:27.705Z,100530.50
2023-05-07T09:29:55.218Z,100527.02
2023-05-07T09:32:22.325Z,100533.33
2023-05-07T09:34:49.721Z,100530.67
2023-05-07T09:37:18.842Z,100532.40
2023-05-07T09:39:48.431Z,100519.08
2023-05-07T09:42:18.245Z,100517.58
2023-05-07T09:44:46.114Z,100524.52
2023-05-07T09:47:21.063Z,100529.64
2023-05-07T09:49:50.624Z,100524.46
2023-05-07T09:52:20.195Z,100522.86
2023-05-07T09:54:50.950Z,100530.68
2023-05-07T09:57:18.984Z,100523.40
2023-05-07T09:59:46.445Z,100513.65
2023-05-07T10:02:15.170Z,100522.02
2023-05-07T10:04:47.513Z,100515.66
2023-05-07T10:07:15.717Z,100520.03
2023-05-07T10:09:44.868Z,100517.96
2023-05-07T10:12:18.941Z,100518.90
2023-05-07T10:14:46.804Z,100508.20
2023-05-07T10:17:13.877Z,100502.52
2023-05-07T10:19:42.316Z,100505.46
2023-05-07T10:22:09.690Z,100511.02
2023-05-07T10:24:40.736Z,100508.79
2023-05-07T10:27:13.651Z,100526.45
2023-05-07T10:29:50.504Z,100516.08
2023-05-07T10:32:36.607Z,100523.05
2023-05-07T10:35:06.305Z,100515.89
2023-05-07T10:37:33.476Z,100507.70
2023-05-07T10:40:00.546Z,100510.83
2023-05-07T10:42:27.955Z,100514.14
2023-05-07T10:44:55.619Z,100513.90
2023-05-07T10:47:25.550Z,100511.91
2023-05-07T10:49:56.480Z,100507.55
2023-05-07T10:52:28.242Z,100515.77
2023-05-07T10:55:18.879Z,100517.88
2023-05-07T10:57:54.276Z,100516.29
2023-05-07T11:00:38.992Z,100507.27
2023-05-07T11:03:10.488Z,100505.77
2023-05-07T11:05:43.162Z,100511.52
2023-05-07T11:08:21.095Z,100495.17
2023-05-07T11:10:58.053Z,100487.96
2023-05-07T11:13:53.953Z,100487.90
2023-05-07T11:16:43.559Z,100479.26
2023-05-07T11:19:17.218Z,100477.95
2023-05-07T11:21:47.769Z,100467.89
2023-05-07T11:24:23.298Z,100466.48
2023-05-07T11:26:54.653Z,100474.85
2023-05-07T11:29:23.477Z,100473.30
2023-05-07T11:31:55.583Z,100460.78
2023-05-07T11:34:25.139Z,100462.70
2023-05-07T11:36:53.017Z,100449.33
2023-05-07T11:39:27.938Z,100441.17
2023-05-07T11:41:54.981Z,100444.27
2023-05-07T11:44:21.902Z,100440.30
2023-05-07T11:46:48.775Z,100444.73
2023-05-07T11:49:16.061Z,100434.77
2023-05-07T11:51:43.218Z,100436.27
2023-05-07T11:54:12.410Z,100440.23
2023-05-07T11:56:40.127Z,100435.75
2023-05-07T11:59:07.379Z,100437.98
2023-05-07T12:01:36.416Z,100438.09
2023-05-07T12:04:04.544Z,100434.93
2023-05-07T12:06:32.171Z,100433.08
2023-05-07T12:08:59.126Z,100424.64
2023-05-07T12:11:27.081Z,100423.75
2023-05-07T12:13:59.055Z,100418.91
2023-05-07T12:16:26.500Z,100419.77
2023-05-07T12:18:56.214Z,100419.15
2023-05-07T12:21:23.486Z,100415.23
2023-05-07T12:23:50.541Z,100420.47
2023-05-07T12:26:17.490Z,100413.83
2023-05-07T12:28:44.559Z,100418.17
2023-05-07T12:31:11.620Z,100420.19
2023-05-07T12:33:38.655Z,100420.66
2023-05-07T12:36:08.753Z,100418.90
2023-05-07T12:38:37.766Z,100417.79
2023-05-07T12:41:04.952Z,100411.39
2023-05-07T12:43:31.978Z,100408.60
2023-05-07T12:46:06.071Z,100395.20
2023-05-07T12:48:33.285Z,100397.98
2023-05-07T12:51:01.334Z,100404.95
2023-05-07T12:53:28.689Z,100400.66
2023-05-07T12:55:57.030Z,100397.58
2023-05-07T12:58:30.676Z,100394.55
2023-05-07T13:01:01.704Z,100388.55
2023-05-07T13:03:33.467Z,100398.20
2023-05-07T13:06:02.102Z,100396.92
2023-05-07T13:08:28.906Z,100391.27
2023-05-07T13:10:56.007Z,100394.04
2023-05-07T13:13:22.985Z,100394.71
2023-05-07T13:15:50.077Z,100394.91
2023-05-07T13:18:17.083Z,100393.01
2023-05-07T13:20:44.168Z,100394.81
2023-05-07T13:23:11.086Z,100396.42
2023-05-07T13:25:39.216Z,100403.63
2023-05-07T13:28:10.689Z,100395.95
2023-05-07T13:30:38.461Z,100401.21
2023-05-07T13:33:05.619Z,100392.56
2023-05-07T13:35:32.632Z,100395.90
2023-05-07T13:37:59.532Z,100396.33
2023-05-07T13:40:26.484Z,100389.27
2023-05-07T13:42:54.093Z,100388.52
2023-05-07T13:45:21.152Z,100389.17
2023-05-07T13:47:48.345Z,100394.52
2023-05-07T13:50:15.360Z,100398.71
2023-05-07T13:52:46.486Z,100394.20
2023-05-07T13:55:14.077Z,100394.67
2023-05-07T13:57:41.149Z,100390.05
2023-05-07T14:00:09.978Z,100398.84
2023-05-07T14:02:43.234Z,100401.31
2023-05-07T14:05:11.264Z,100399.57
2023-05-07T14:07:38.360Z,100400.71
2023-05-07T14:10:05.881Z,100402.27
2023-05-07T14:12:33.784Z,100398.20
2023-05-07T14:15:01.026Z,100402.11
2023-05-07T14:17:28.377Z,100400.21
2023-05-07T14:19:55.617Z,100393.29
2023-05-07T14:22:23.630Z,100398.31
2023-05-07T14:25:05.377Z,100399.10
2023-05-07T14:27:33.115Z,100399.59
2023-05-07T14:30:00.023Z,100394.45
2023-05-07T14:32:27.016Z,100398.27
2023-05-07T14:34:53.967Z,100400.02
2023-05-07T14:37:21.249Z,100407.02
2023-05-07T14:39:50.780Z,100401.27
2023-05-07T14:42:18.731Z,100413.67
2023-05-07T14:44:47.788Z,100411.50
2023-05-07T14:47:16.241Z,100411.02
2023-05-07T14:49:44.194Z,100413.46
2023-05-07T14:52:11.404Z,100405.69
2023-05-07T14:54:39.099Z,100402.81
2023-05-07T14:57:06.897Z,100401.23
2023-05-07T14:59:34.042Z,100405.10
2023-05-07T15:02:02.483Z,100404.17
2023-05-07T15:04:31.055Z,100402.36
2023-05-07T15:06:57.999Z,100401.95
2023-05-07T15:09:24.956Z,100407.56
2023-05-07T15:11:52.005Z,100406.14
2023-05-07T15:14:19.043Z,100405.20
2023-05-07T15:16:46.885Z,100402.41
2023-05-07T15:19:16.010Z,100406.77
2023-05-07T15:21:43.183Z,100409.83
2023-05-07T15:24:10.559Z,100404.14
2023-05-07T15:26:37.572Z,100405.59
2023-05-07T15:29:09.257Z,100408.50
2023-05-07T15:31:38.684Z,100406.04
2023-05-07T15:34:05.627Z,100408.58
2023-05-07T15:36:32.578Z,100412.42
2023-05-07T15:38:59.516Z,100406.42
2023-05-07T15:41:26.372Z,100409.34
2023-05-07T15:43:53.266Z,100410.02
2023-05-07T15:46:21.299Z,100410.98
2023-05-07T15:48:48.416Z,100411.17
2023-05-07T15:51:15.385Z,100413.70
2023-05-07T15:53:42.496Z,100413.44
2023-05-07T15:56:09.512Z,100413.89
2023-05-07T15:58:36.568Z,100417.15
2023-05-07T16:01:04.191Z,100418.52
2023-05-07T16:03:31.344Z,100421.75
2023-05-07T16:05:58.436Z,100427.14
2023-05-07T16:08:25.369Z,100425.73
2023-05-07T16:10:52.325Z,100428.88
2023-05-07T16:13:20.190Z,100431.73
2023-05-07T16:15:48.110Z,100429.63
2023-05-07T16:18:17.872Z,100429.66
2023-05-07T16:20:45.778Z,100429.08
2023-05-07T16:23:13.321Z,100438.11
2023-05-07T16:25:40.282Z,100438.92
2023-05-07T16:28:08.040Z,100439.72
2023-05-07T16:30:34.998Z,100440.83
2023-05-07T16:33:02.092Z,100444.79
2023-05-07T16:35:29.002Z,100449.47
2023-05-07T16:37:56.078Z,100445.80
2023-05-07T16:40:23.018Z,100447.98
2023-05-07T16:42:49.864Z,100446.23
2023-05-07T16:45:17.387Z,100447.73
2023-05-07T16:47:44.368Z,100451.66
2023-05-07T16:50:11.757Z,100457.59
2023-05-07T16:52:38.678Z,100456.02
2023-05-07T16:55:06.344Z,100460.34
2023-05-07T16:57:33.287Z,100459.27
2023-05-07T17:00:00.800Z,100468.67
2023-05-07T17:02:27.904Z,100469.63
2023-05-07T17:04:54.955Z,100471.45
2023-05-07T17:07:21.915Z,100475.17
2023-05-07T17:09:48.887Z,100476.19
2023-05-07T17:12:16.542Z,100476.11
2023-05-07T17:14:43.680Z,100476.28
2023-05-07T17:17:10.648Z,100477.34
2023-05-07T17:19:39.816Z,100477.59
2023-05-07T17:22:07.119Z,100474.52
2023-05-07T17:24:33.960Z,100476.91
2023-05-07T17:27:00.902Z,100472.52
2023-05-07T17:29:27.839Z,100472.26
2023-05-07T17:31:54.853Z,100475.39
2023-05-07T17:34:22.866Z,100476.76
2023-05-07T17:36:49.816Z,100475.04
2023-05-07T17:39:16.660Z,100478.00
2023-05-07T17:41:43.615Z,100478.80
2023-05-07T17:44:10.569Z,100484.95
2023-05-07T17:46:37.398Z,100487.16
2023-05-07T17:49:04.362Z,100489.70
2023-05-07T17:51:39.022Z,100495.70
2023-05-07T17:54:13.032Z,100490.07
2023-05-07T17:56:40.388Z,100496.08
2023-05-07T17:59:07.330Z,100492.60
2023-05-07T18:01:34.636Z,100494.64
2023-05-07T18:04:02.245Z,100493.89
2023-05-07T18:06:29.285Z,100496.48
2023-05-07T18:08:56.951Z,100495.56
2023-05-07T18:11:24.009Z,100496.42
2023-05-07T18:13:50.859Z,100497.45
2023-05-07T18:16:19.369Z,100499.57
2023-05-07T18:18:47.030Z,100505.91
2023-05-07T18:21:19.110Z,100502.41
2023-05-07T18:23:46.744Z,100502.95
2023-05-07T18:26:13.692Z,100507.15
2023-05-07T18:28:40.844Z,100504.91
2023-05-07T18:31:07.791Z,100506.65
2023-05-07T18:33:34.745Z,100503.30
2023-05-07T18:36:01.646Z,100504.46
2023-05-07T18:38:28.646Z,100502.10
2023-05-07T18:41:03.889Z,100503.02
2023-05-07T18:43:30.849Z,100500.89
2023-05-07T18:45:58.351Z,100500.30
2023-05-07T18:48:25.330Z,100497.79
2023-05-07T18:50:52.745Z,100496.11
2023-05-07T18:53:19.771Z,100495.64
2023-05-07T18:55:51.219Z,100493.27
2023-05-07T18:58:20.203Z,100491.98
2023-05-07T19:00:48.047Z,100496.67
2023-05-07T19:03:16.064Z,100494.05
2023-05-07T19:05:43.983Z,100493.89
2023-05-07T19:08:11.112Z,100496.87
2023-05-07T19:10:38.171Z,100495.75
2023-05-07T19:13:05.157Z,100498.92
2023-05-07T19:15:32.217Z,100497.48
2023-05-07T19:17:59.151Z,100497.34
2023-05-07T19:20:26.224Z,100495.61
2023-05-07T19:22:53.223Z,100493.04
2023-05-07T19:25:20.153Z,100497.50
2023-05-07T19:27:48.186Z,100496.77
2023-05-07T19:30:15.093Z,100497.06
2023-05-07T19:32:41.990Z,100497.70
2023-05-07T19:35:09.412Z,100500.83
2023-05-07T19:37:36.443Z,100499.30
2023-05-07T19:40:05.381Z,100499.75
2023-05-07T19:42:32.463Z,100500.52
2023-05-07T19:44:59.440Z,100504.13
2023-05-07T19:47:26.587Z,100501.63
2023-05-07T19:49:53.579Z,100507.91
2023-05-07T19:52:20.502Z,100505.02
2023-05-07T19:54:47.656Z,100502.68
2023-05-07T19:57:15.647Z,100505.04
2023-05-07T19:59:42.496Z,100506.23
2023-05-07T20:02:09.632Z,100502.95
2023-05-07T20:04:38.319Z,100502.66
2023-05-07T20:07:05.508Z,100504.35
2023-05-07T20:09:32.380Z,100506.33
2023-05-07T20:11:59.371Z,100507.58
2023-05-07T20:14:29.451Z,100506.82
2023-05-07T20:16:56.363Z,100508.85
2023-05-07T20:19:23.282Z,100509.89
2023-05-07T20:21:50.377Z,100509.08
2023-05-07T20:24:19.352Z,100513.67
2023-05-07T20:26:46.875Z,100513.27
2023-05-07T20:29:13.802Z,100513.95
2023-05-07T20:31:40.807Z,100518.92
2023-05-07T20:34:08.210Z,100518.52
2023-05-07T20:36:36.048Z,100521.52
2023-05-07T20:39:04.358Z,100526.13
2023-05-07T20:41:31.391Z,100522.66
2023-05-07T20:43:58.565Z,100524.56
2023-05-07T20:46:27.558Z,100519.84
2023-05-07T20:48:55.015Z,100521.84
2023-05-07T20:51:21.846Z,100523.83
2023-05-07T20:53:48.793Z,100522.76
2023-05-07T20:56:16.093Z,100522.39
2023-05-07T20:58:43.008Z,100526.70
2023-05-07T21:01:09.980Z,100526.81
2023-05-07T21:03:36.913Z,100526.45
2023-05-07T21:06:04.492Z,100528.15
2023-05-07T21:08:31.433Z,100525.13
2023-05-07T21:10:58.389Z,100525.42
2023-05-07T21:13:25.331Z,100530.84
2023-05-07T21:15:52.568Z,100532.05
2023-05-07T21:18:19.675Z,100537.71
2023-05-07T21:20:46.592Z,100540.98
2023-05-07T21:23:13.524Z,100542.72
2023-05-07T21:25:41.690Z,100545.95
2023-05-07T21:28:09.589Z,100548.51
2023-05-07T21:30:37.054Z,100548.18
2023-05-07T21:33:06.221Z,100550.15
2023-05-07T21:35:36.145Z,100549.48
2023-05-07T21:38:03.469Z,100550.23
2023-05-07T21:40:30.365Z,100556.13
2023-05-07T21:42:58.565Z,100560.95
2023-05-07T21:45:25.703Z,100558.48
2023-05-07T21:47:52.928Z,100561.63
2023-05-07T21:50:20.217Z,100565.36
2023-05-07T21:52:47.166Z,100567.30
2023-05-07T21:55:14.257Z,100568.10
2023-05-07T21:57:45.519Z,100570.79
2023-05-07T22:00:16.443Z,100573.45
2023-05-07T22:02:43.424Z,100575.55
2023-05-07T22:05:10.342Z,100572.69
2023-05-07T22:07:37.393Z,100575.34
2023-05-07T22:10:04.897Z,100573.91
2023-05-07T22:12:31.775Z,100572.77
2023-05-07T22:14:58.610Z,100573.46
2023-05-07T22:17:25.710Z,100575.96
2023-05-07T22:19:53.037Z,100574.34
2023-05-07T22:22:19.999Z,100572.92
2023-05-07T22:24:47.147Z,100575.66
2023-05-07T22:27:13.998Z,100571.04
2023-05-07T22:29:41.145Z,100571.21
2023-05-07T22:32:10.455Z,100572.55
2023-05-07T22:34:38.765Z,100568.09
2023-05-07T22:37:05.594Z,100571.77
2023-05-07T22:39:34.561Z,100576.58
2023-05-07T22:42:02.472Z,100571.78
2023-05-07T22:44:29.539Z,100578.49
2023-05-07T22:46:56.552Z,100573.23
2023-05-07T22:49:23.505Z,100573.85
2023-05-07T22:51:50.353Z,100574.80
2023-05-07T22:54:17.185Z,100570.41
2023-05-07T22:56:44.029Z,100566.98
2023-05-07T22:59:11.004Z,100569.54
2023-05-07T23:01:38.256Z,100569.83
2023-05-07T23:04:05.724Z,100571.53
2023-05-07T23:06:32.670Z,100572.13
2023-05-07T23:08:59.634Z,100570.75
2023-05-07T23:11:26.601Z,100568.56
2023-05-07T23:13:53.525Z,100568.31
2023-05-07T23:16:20.509Z,100572.15
2023-05-07T23:18:48.455Z,100571.67
2023-05-07T23:21:15.733Z,100574.37
2023-05-07T23:23:43.001Z,100575.45
2023-05-07T23:26:09.914Z,100572.35
2023-05-07T23:28:36.763Z,100575.16
2023-05-07T23:31:03.621Z,100569.56
2023-05-07T23:33:30.670Z,100569.15
2023-05-07T23:36:01.382Z,100573.89
2023-05-07T23:38:28.255Z,100572.34
2023-05-07T23:40:55.526Z,100570.45
2023-05-07T23:43:22.440Z,100572.45
2023-05-07T23:45:49.424Z,100572.36
2023-05-07T23:48:16.476Z,100572.17
2023-05-07T23:50:43.374Z,100573.64
2023-05-07T23:53:10.562Z,100570.66
2023-05-07T23:55:37.527Z,100567.12
2023-05-07T23:58:04.467Z,100565.82
